Time;durP1;ratioP1;P1;durP2;ratioP2;P2;SDS_P1;SDS_P2;PMS_P1;PMS_P2;Temp;Humidity;BMP_temperature;BMP_pressure;BME280_temperature;BME280_humidity;BME280_pressure;Samples;Min_cycle;Max_cycle;Signal;HPM_P1;HPM_P2
2023/07/10 00:01:08;;;;;;;25.08;18.00;;;19.20;99.90;;;;;;4866530;29;20033;-89
2023/07/10 00:03:34;;;;;;;20.25;16.95;;;19.10;99.90;;;;;;4869578;29;20041;-90
2023/07/10 00:06:00;;;;;;;23.58;16.88;;;19.20;99.90;;;;;;4877550;29;20423;-90
2023/07/10 00:08:26;;;;;;;20.95;17.45;;;19.10;99.90;;;;;;4857909;29;20049;-90
2023/07/10 00:10:53;;;;;;;20.08;17.10;;;19.10;99.90;;;;;;4856163;29;20408;-90
2023/07/10 00:13:21;;;;;;;21.02;17.05;;;19.10;99.90;;;;;;4871213;29;20053;-90
2023/07/10 00:15:51;;;;;;;22.35;16.67;;;19.10;99.90;;;;;;4881093;29;20068;-89
2023/07/10 00:18:19;;;;;;;24.13;16.60;;;19.10;99.90;;;;;;4860247;29;20173;-89
2023/07/10 00:20:45;;;;;;;24.02;18.27;;;19.10;99.90;;;;;;4878421;29;20120;-89
2023/07/10 00:23:12;;;;;;;18.40;16.50;;;19.10;99.90;;;;;;4866649;29;20112;-89
2023/07/10 00:25:38;;;;;;;23.05;15.52;;;19.00;99.90;;;;;;4847450;29;20056;-89
2023/07/10 00:28:15;;;;;;;19.95;16.77;;;19.10;99.90;;;;;;4867962;29;20045;-89
2023/07/10 00:30:42;;;;;;;24.30;17.27;;;19.10;99.90;;;;;;4862966;29;20041;-90
2023/07/10 00:33:10;;;;;;;23.88;18.63;;;19.10;99.90;;;;;;4853009;29;20526;-89
2023/07/10 00:35:37;;;;;;;25.10;18.50;;;19.00;99.90;;;;;;4849117;29;20148;-89
2023/07/10 00:38:14;;;;;;;28.88;20.95;;;19.10;99.90;;;;;;4853153;29;20069;-90
2023/07/10 00:40:40;;;;;;;24.58;18.00;;;19.00;99.90;;;;;;4856654;29;20045;-89
2023/07/10 00:43:22;;;;;;;26.02;18.92;;;19.10;99.90;;;;;;4857563;29;20510;-89
2023/07/10 00:45:50;;;;;;;21.63;17.83;;;19.10;99.90;;;;;;4852248;29;20067;-89
2023/07/10 00:48:25;;;;;;;20.67;17.52;;;19.00;99.90;;;;;;4858289;29;20041;-90
2023/07/10 00:50:51;;;;;;;22.60;18.60;;;19.10;99.90;;;;;;4850313;29;20235;-90
2023/07/10 00:53:34;;;;;;;24.15;17.13;;;19.10;99.90;;;;;;4863395;29;20085;-90
2023/07/10 00:56:00;;;;;;;;;;;19.10;99.90;;;;;;4862446;29;20040;-90
2023/07/10 00:58:41;;;;;;;22.30;15.75;;;19.10;99.90;;;;;;4866369;29;19946;-90
2023/07/10 01:01:13;;;;;;;19.95;17.50;;;19.10;99.90;;;;;;4846492;29;20051;-90
2023/07/10 01:03:40;;;;;;;26.80;18.02;;;19.10;99.90;;;;;;4865786;29;20052;-90
2023/07/10 01:06:14;;;;;;;19.52;17.23;;;19.10;99.90;;;;;;4850075;29;20044;-90
2023/07/10 01:08:44;;;;;;;23.23;16.27;;;19.20;99.90;;;;;;4848842;29;20049;-90
2023/07/10 01:11:10;;;;;;;19.25;17.20;;;19.20;99.90;;;;;;4850698;29;20048;-89
2023/07/10 01:13:41;;;;;;;24.15;18.73;;;19.10;99.90;;;;;;4866119;29;20056;-90
2023/07/10 01:16:07;;;;;;;19.58;17.20;;;19.20;99.90;;;;;;4859819;29;20081;-89
2023/07/10 01:18:34;;;;;;;25.75;17.77;;;19.10;99.90;;;;;;4854303;29;20476;-89
2023/07/10 01:21:09;;;;;;;21.15;17.38;;;19.10;99.90;;;;;;4872506;29;20128;-90
2023/07/10 01:23:34;;;;;;;19.38;16.75;;;19.10;99.90;;;;;;4850081;29;20044;-89
2023/07/10 01:26:03;;;;;;;18.95;16.65;;;19.00;99.90;;;;;;4850136;29;20036;-89
2023/07/10 01:28:33;;;;;;;18.73;16.40;;;19.00;99.90;;;;;;4865729;29;20056;-89
2023/07/10 01:31:03;;;;;;;19.23;16.10;;;19.00;99.90;;;;;;4865149;29;20044;-89
2023/07/10 01:33:35;;;;;;;21.58;18.63;;;19.00;99.90;;;;;;4881349;29;20045;-90
2023/07/10 01:36:02;;;;;;;24.23;19.75;;;19.00;99.90;;;;;;4866819;29;20037;-90
2023/07/10 01:38:42;;;;;;;25.65;19.92;;;18.90;99.90;;;;;;4869912;29;20059;-89
2023/07/10 01:41:24;;;;;;;21.25;18.73;;;18.90;99.90;;;;;;4849069;29;20369;-89
2023/07/10 01:43:49;;;;;;;20.55;17.52;;;19.00;99.90;;;;;;4865517;29;20044;-90
2023/07/10 01:46:24;;;;;;;23.88;20.20;;;18.90;99.90;;;;;;4849418;29;20045;-90
2023/07/10 01:48:53;;;;;;;21.88;19.58;;;19.00;99.90;;;;;;4867248;29;20093;-90
2023/07/10 01:51:23;;;;;;;23.80;19.75;;;19.00;99.90;;;;;;4863339;29;20093;-90
2023/07/10 01:53:49;;;;;;;26.60;22.02;;;19.00;99.90;;;;;;4853193;29;20053;-90
2023/07/10 01:56:17;;;;;;;26.27;20.30;;;19.00;99.90;;;;;;4864811;29;20121;-89
2023/07/10 01:58:43;;;;;;;27.35;21.35;;;19.00;99.90;;;;;;4851978;29;20037;-90
2023/07/10 02:01:09;;;;;;;24.17;21.13;;;19.00;99.90;;;;;;4850657;29;20061;-90
2023/07/10 02:03:35;;;;;;;25.38;21.63;;;19.00;99.90;;;;;;4865979;29;20045;-90
2023/07/10 02:06:01;;;;;;;26.33;22.58;;;19.00;99.90;;;;;;4852321;29;20044;-89
2023/07/10 02:08:26;;;;;;;26.27;21.65;;;19.00;99.90;;;;;;4861805;29;20121;-89
2023/07/10 02:10:53;;;;;;;28.08;23.20;;;19.00;99.90;;;;;;4875245;29;20044;-89
2023/07/10 02:13:19;;;;;;;26.38;22.75;;;19.00;99.90;;;;;;4850347;29;20052;-89
2023/07/10 02:15:45;;;;;;;26.45;23.13;;;19.00;99.90;;;;;;4882682;29;20037;-90
2023/07/10 02:18:10;;;;;;;34.78;23.75;;;19.00;99.90;;;;;;4865941;29;20089;-90
2023/07/10 02:20:36;;;;;;;27.70;22.40;;;19.00;99.90;;;;;;4851543;29;20029;-90
2023/07/10 02:23:02;;;;;;;33.85;25.15;;;19.00;99.90;;;;;;4868201;29;20103;-89
2023/07/10 02:25:27;;;;;;;32.58;25.45;;;19.00;99.90;;;;;;4864844;29;20057;-89
2023/07/10 02:27:53;;;;;;;31.67;24.50;;;19.00;99.90;;;;;;4869864;29;20048;-89
2023/07/10 02:30:19;;;;;;;29.35;23.63;;;19.00;99.90;;;;;;4848534;29;20041;-89
2023/07/10 02:32:44;;;;;;;30.77;25.33;;;19.00;99.90;;;;;;4848495;29;20047;-89
2023/07/10 02:35:10;;;;;;;32.33;25.52;;;19.00;99.90;;;;;;4870488;29;20042;-89
2023/07/10 02:37:36;;;;;;;28.38;24.52;;;19.00;99.90;;;;;;4847491;29;20048;-89
2023/07/10 02:40:03;;;;;;;29.30;24.52;;;19.00;99.90;;;;;;4862978;29;20503;-89
2023/07/10 02:42:28;;;;;;;33.67;27.52;;;19.00;99.90;;;;;;4848855;29;20065;-89
2023/07/10 02:44:54;;;;;;;29.70;25.73;;;19.00;99.90;;;;;;4863657;29;20065;-90
2023/07/10 02:47:20;;;;;;;34.00;27.80;;;19.00;99.90;;;;;;4862233;29;20518;-89
2023/07/10 02:49:45;;;;;;;35.20;29.25;;;18.90;99.90;;;;;;4847354;29;20089;-89
2023/07/10 02:52:11;;;;;;;36.45;28.35;;;18.90;99.90;;;;;;4865721;29;20041;-88
2023/07/10 02:54:37;;;;;;;36.17;27.63;;;18.90;99.90;;;;;;4847385;29;20040;-89
2023/07/10 02:57:02;;;;;;;32.40;28.75;;;18.90;99.90;;;;;;4864044;29;20444;-89
2023/07/10 02:59:28;;;;;;;34.67;28.35;;;18.90;99.90;;;;;;4867335;29;20485;-89
2023/07/10 03:01:55;;;;;;;34.60;29.70;;;18.80;99.90;;;;;;4862521;29;20079;-89
2023/07/10 03:04:21;;;;;;;34.25;29.55;;;18.80;99.90;;;;;;4862818;29;20033;-88
2023/07/10 03:06:48;;;;;;;38.08;32.08;;;18.90;99.90;;;;;;4861334;29;20053;-88
2023/07/10 03:09:15;;;;;;;42.00;31.92;;;18.80;99.90;;;;;;4861382;29;20516;-89
2023/07/10 03:11:41;;;;;;;32.42;27.95;;;18.80;99.90;;;;;;4844925;29;20115;-88
2023/07/10 03:14:07;;;;;;;38.42;31.55;;;18.80;99.90;;;;;;4860803;29;20581;-88
2023/07/10 03:16:32;;;;;;;38.22;30.27;;;18.80;99.90;;;;;;4860172;29;20049;-88
2023/07/10 03:18:58;;;;;;;36.80;30.10;;;18.80;99.90;;;;;;4845291;29;20120;-88
2023/07/10 03:21:24;;;;;;;35.90;28.65;;;18.80;99.90;;;;;;4861419;29;20041;-88
2023/07/10 03:23:50;;;;;;;33.47;29.15;;;18.80;99.90;;;;;;4860571;29;20416;-88
2023/07/10 03:26:17;;;;;;;33.03;29.42;;;18.80;99.90;;;;;;4860858;29;20041;-88
2023/07/10 03:28:42;;;;;;;36.80;30.42;;;18.80;99.90;;;;;;4860547;29;20535;-88
2023/07/10 03:31:08;;;;;;;32.92;28.50;;;18.80;99.90;;;;;;4860037;29;20045;-88
2023/07/10 03:33:34;;;;;;;32.83;27.08;;;18.80;99.90;;;;;;4845709;29;20064;-88
2023/07/10 03:36:05;;;;;;;32.97;26.95;;;18.80;99.90;;;;;;4844424;29;20041;-88
2023/07/10 03:38:31;;;;;;;32.03;26.98;;;18.80;99.90;;;;;;4845496;29;20060;-88
2023/07/10 03:40:58;;;;;;;33.10;28.77;;;18.70;99.90;;;;;;4859936;29;20037;-88
2023/07/10 03:43:26;;;;;;;33.13;29.05;;;18.70;99.90;;;;;;4845163;29;20040;-88
2023/07/10 03:45:52;;;;;;;33.53;28.08;;;18.70;99.90;;;;;;4862765;29;20154;-88
2023/07/10 03:48:18;;;;;;;30.27;26.33;;;18.70;99.90;;;;;;4866133;29;20080;-88
2023/07/10 03:50:44;;;;;;;31.33;28.05;;;18.70;99.90;;;;;;4861837;29;20065;-88
2023/07/10 03:53:09;;;;;;;30.92;26.73;;;18.70;99.90;;;;;;4847213;29;20060;-88
2023/07/10 03:55:35;;;;;;;27.80;24.83;;;18.70;99.90;;;;;;4861662;29;20084;-88
2023/07/10 03:58:01;;;;;;;29.10;24.65;;;18.70;99.90;;;;;;4845104;29;20075;-88
2023/07/10 04:00:26;;;;;;;29.98;24.80;;;18.70;99.90;;;;;;4879492;29;20072;-88
2023/07/10 04:02:52;;;;;;;29.30;26.10;;;18.70;99.90;;;;;;4878602;29;20033;-88
2023/07/10 04:05:18;;;;;;;31.30;26.60;;;18.70;99.90;;;;;;4879023;29;20041;-88
2023/07/10 04:07:43;;;;;;;31.90;27.55;;;18.70;99.90;;;;;;4864099;29;20063;-88
2023/07/10 04:10:09;;;;;;;31.77;27.05;;;18.70;99.90;;;;;;4863611;29;20149;-88
2023/07/10 04:12:35;;;;;;;29.55;26.05;;;18.60;99.90;;;;;;4878888;29;20056;-87
2023/07/10 04:15:01;;;;;;;28.80;24.85;;;18.60;99.90;;;;;;4881463;29;20044;-88
2023/07/10 04:17:26;;;;;;;28.17;25.20;;;18.60;99.90;;;;;;4868097;29;20435;-88
2023/07/10 04:19:52;;;;;;;28.67;25.13;;;18.60;99.90;;;;;;4885334;29;20043;-88
2023/07/10 04:22:18;;;;;;;27.05;24.25;;;18.60;99.90;;;;;;4885515;29;20036;-88
2023/07/10 04:24:43;;;;;;;26.27;22.92;;;18.60;99.90;;;;;;4883603;29;20036;-88
2023/07/10 04:27:09;;;;;;;29.65;25.33;;;18.60;99.90;;;;;;4886310;29;20376;-88
2023/07/10 04:29:35;;;;;;;26.80;23.95;;;18.60;99.90;;;;;;4867744;29;20042;-88
2023/07/10 04:32:01;;;;;;;28.05;25.10;;;18.60;99.90;;;;;;4883592;29;20503;-88
2023/07/10 04:34:26;;;;;;;26.02;23.60;;;18.60;99.90;;;;;;4886010;29;20047;-88
2023/07/10 04:36:52;;;;;;;26.67;23.70;;;18.60;99.90;;;;;;4904594;29;20088;-88
2023/07/10 04:39:18;;;;;;;27.90;24.90;;;18.60;99.90;;;;;;4903313;29;20044;-88
2023/07/10 04:41:44;;;;;;;25.65;22.83;;;18.60;99.90;;;;;;4893329;29;20036;-88
2023/07/10 04:44:10;;;;;;;28.08;25.02;;;18.60;99.90;;;;;;4883538;29;20036;-88
2023/07/10 04:46:36;;;;;;;24.33;21.77;;;18.70;99.90;;;;;;4886804;29;20550;-87
2023/07/10 04:49:01;;;;;;;24.75;22.13;;;18.70;99.90;;;;;;4882706;29;20114;-87
2023/07/10 04:51:27;;;;;;;24.83;22.25;;;18.80;99.90;;;;;;4882112;29;20040;-88
2023/07/10 04:53:53;;;;;;;24.23;21.63;;;18.80;99.90;;;;;;4885760;29;20487;-88
2023/07/10 04:56:19;;;;;;;23.15;20.73;;;18.70;99.90;;;;;;4866540;29;21956;-87
2023/07/10 04:58:54;;;;;;;21.45;19.20;;;18.80;99.90;;;;;;4866563;29;20658;-88
2023/07/10 05:01:29;;;;;;;21.35;18.70;;;18.80;99.90;;;;;;4880690;29;20044;-87
2023/07/10 05:03:55;;;;;;;21.92;18.02;;;18.80;99.90;;;;;;4882198;29;20037;-87
2023/07/10 05:06:21;;;;;;;21.92;17.83;;;18.80;99.90;;;;;;4881387;29;20040;-88
2023/07/10 05:08:47;;;;;;;19.55;16.90;;;18.80;99.90;;;;;;4875662;29;20526;-88
2023/07/10 05:11:14;;;;;;;19.40;17.30;;;18.70;99.90;;;;;;4865634;29;20040;-86
2023/07/10 05:13:39;;;;;;;21.42;15.95;;;18.80;99.90;;;;;;4881455;29;20045;-86
2023/07/10 05:16:06;;;;;;;16.65;14.95;;;18.80;99.90;;;;;;4882222;29;20401;-87
2023/07/10 05:18:31;;;;;;;15.73;14.18;;;18.70;99.90;;;;;;4866284;29;20036;-86
2023/07/10 05:20:58;;;;;;;15.32;13.02;;;18.80;99.90;;;;;;4881397;29;20037;-87
2023/07/10 05:23:24;;;;;;;14.70;12.15;;;18.70;99.90;;;;;;4880773;29;20079;-86
2023/07/10 05:25:57;;;;;;;13.13;11.73;;;18.70;99.90;;;;;;4879274;29;20073;-86
2023/07/10 05:28:24;;;;;;;11.82;10.63;;;18.70;99.90;;;;;;4876804;29;20112;-86
2023/07/10 05:30:49;;;;;;;12.88;9.52;;;18.70;99.90;;;;;;4869060;29;20036;-87
2023/07/10 05:33:15;;;;;;;12.80;8.60;;;18.70;99.90;;;;;;4880276;29;20644;-87
2023/07/10 05:36:02;;;;;;;9.95;8.45;;;18.70;99.90;;;;;;4880305;29;20040;-86
2023/07/10 05:38:30;;;;;;;10.20;8.48;;;18.60;99.90;;;;;;4880318;29;20064;-87
2023/07/10 05:40:56;;;;;;;8.88;7.40;;;18.60;99.90;;;;;;4886007;29;20123;-85
2023/07/10 05:43:22;;;;;;;9.68;7.32;;;18.70;99.90;;;;;;4891398;29;20497;-87
2023/07/10 05:45:49;;;;;;;9.32;7.13;;;18.70;99.90;;;;;;4880295;29;20096;-87
2023/07/10 05:48:15;;;;;;;9.02;7.70;;;18.70;99.90;;;;;;4887702;29;20128;-87
2023/07/10 05:50:47;;;;;;;8.65;7.30;;;18.70;99.90;;;;;;4885608;29;20059;-88
2023/07/10 05:53:13;;;;;;;10.32;6.32;;;18.80;99.90;;;;;;4889738;29;20051;-89
2023/07/10 05:55:44;;;;;;;8.48;6.10;;;18.70;99.90;;;;;;4886575;29;20108;-88
2023/07/10 05:58:10;;;;;;;10.20;7.18;;;18.70;99.90;;;;;;4878221;29;20039;-88
2023/07/10 06:00:35;;;;;;;9.55;5.53;;;18.70;99.90;;;;;;4874367;29;20054;-88
2023/07/10 06:03:01;;;;;;;6.90;5.45;;;18.80;99.90;;;;;;4869726;29;20036;-87
2023/07/10 06:05:26;;;;;;;8.40;5.07;;;18.90;99.90;;;;;;4883553;29;20045;-89
2023/07/10 06:08:01;;;;;;;8.75;5.00;;;18.90;99.90;;;;;;4866333;29;20436;-90
2023/07/10 06:10:26;;;;;;;7.15;4.97;;;18.90;99.90;;;;;;4863840;29;20104;-88
2023/07/10 06:12:52;;;;;;;5.68;4.85;;;19.00;99.90;;;;;;4887600;29;20036;-87
2023/07/10 06:15:18;;;;;;;6.07;4.45;;;19.00;99.90;;;;;;4865986;29;20059;-87
2023/07/10 06:17:43;;;;;;;5.47;4.40;;;19.00;99.90;;;;;;4887428;29;20045;-88
2023/07/10 06:20:09;;;;;;;7.45;4.60;;;19.00;99.90;;;;;;4860730;29;20044;-89
2023/07/10 06:22:35;;;;;;;6.63;4.45;;;19.10;99.90;;;;;;4885781;29;20384;-90
2023/07/10 06:25:01;;;;;;;5.47;4.43;;;19.10;99.90;;;;;;4880146;29;20104;-87
2023/07/10 06:27:26;;;;;;;6.75;4.65;;;19.30;99.90;;;;;;4883272;29;20495;-89
2023/07/10 06:29:52;;;;;;;5.80;4.60;;;19.30;99.90;;;;;;4880278;29;20515;-88
2023/07/10 06:32:19;;;;;;;7.10;4.35;;;19.30;99.90;;;;;;4880688;29;20499;-88
2023/07/10 06:34:44;;;;;;;6.93;4.07;;;19.30;99.90;;;;;;4872619;29;20083;-88
2023/07/10 06:37:10;;;;;;;5.72;4.40;;;19.30;99.90;;;;;;4879295;29;20068;-89
2023/07/10 06:39:35;;;;;;;9.70;4.15;;;19.30;99.90;;;;;;4885565;29;20036;-90
2023/07/10 06:42:01;;;;;;;6.15;3.75;;;19.40;99.90;;;;;;4880495;29;20054;-89
2023/07/10 06:44:27;;;;;;;5.78;4.00;;;19.60;99.90;;;;;;4880477;29;20128;-89
2023/07/10 06:46:52;;;;;;;7.15;4.10;;;19.70;99.90;;;;;;4863942;29;20077;-89
2023/07/10 06:49:18;;;;;;;5.75;3.65;;;19.80;99.90;;;;;;4883718;29;20055;-90
2023/07/10 06:51:43;;;;;;;7.80;3.90;;;19.90;99.90;;;;;;4881490;29;20091;-88
2023/07/10 06:54:10;;;;;;;7.10;3.60;;;19.80;99.90;;;;;;4882794;29;20043;-86
2023/07/10 06:56:35;;;;;;;6.25;3.45;;;19.80;99.90;;;;;;4882866;29;20415;-87
2023/07/10 06:59:01;;;;;;;6.03;3.28;;;19.80;99.90;;;;;;4864178;29;20138;-87
2023/07/10 07:01:27;;;;;;;8.15;3.10;;;19.90;99.90;;;;;;4862950;29;20040;-87
2023/07/10 07:03:53;;;;;;;5.38;3.00;;;20.10;99.90;;;;;;4879606;29;20135;-87
2023/07/10 07:06:18;;;;;;;4.60;2.65;;;20.30;99.90;;;;;;4878769;29;20071;-91
2023/07/10 07:08:49;;;;;;;4.43;3.35;;;20.40;99.90;;;;;;4878709;29;20172;-89
2023/07/10 07:11:15;;;;;;;3.90;2.53;;;20.40;99.90;;;;;;4864725;29;20051;-90
2023/07/10 07:13:40;;;;;;;8.10;2.88;;;20.30;99.90;;;;;;4877079;29;20041;-90
2023/07/10 07:16:06;;;;;;;5.82;2.60;;;20.30;99.90;;;;;;4878530;29;20048;-86
2023/07/10 07:18:32;;;;;;;4.72;2.50;;;20.30;99.90;;;;;;4881059;29;20036;-86
2023/07/10 07:20:59;;;;;;;4.90;2.67;;;20.40;99.90;;;;;;4879188;29;20108;-87
2023/07/10 07:23:26;;;;;;;4.60;2.25;;;20.50;99.90;;;;;;4882027;29;20691;-86
2023/07/10 07:25:53;;;;;;;4.65;2.40;;;20.60;99.90;;;;;;4865565;29;20041;-86
2023/07/10 07:28:19;;;;;;;5.35;2.40;;;20.70;99.90;;;;;;4868457;29;20040;-86
2023/07/10 07:30:47;;;;;;;7.75;2.50;;;20.80;99.90;;;;;;4865189;29;20038;-87
2023/07/10 07:33:18;;;;;;;6.18;2.03;;;21.00;99.90;;;;;;4881039;29;20100;-88
2023/07/10 07:35:44;;;;;;;5.65;2.20;;;21.10;99.90;;;;;;4886250;29;20043;-88
2023/07/10 07:38:10;;;;;;;5.22;2.33;;;21.10;99.90;;;;;;4897765;29;20408;-85
2023/07/10 07:40:36;;;;;;;3.75;1.88;;;21.20;99.90;;;;;;4882726;29;20040;-85
2023/07/10 07:43:02;;;;;;;5.18;2.22;;;21.20;99.90;;;;;;4881696;29;20411;-86
2023/07/10 07:45:28;;;;;;;6.15;2.35;;;21.40;99.90;;;;;;4883032;29;20045;-86
2023/07/10 07:47:54;;;;;;;3.90;1.90;;;21.50;99.90;;;;;;4887321;29;20072;-85
2023/07/10 07:50:19;;;;;;;5.15;2.22;;;21.50;99.90;;;;;;4884163;29;20423;-85
2023/07/10 07:52:45;;;;;;;5.10;2.35;;;21.60;99.90;;;;;;4866614;29;20502;-85
2023/07/10 07:55:11;;;;;;;6.20;2.65;;;21.60;99.90;;;;;;4884101;29;20045;-86
2023/07/10 07:57:40;;;;;;;6.25;2.20;;;21.70;99.90;;;;;;4864739;29;20068;-86
2023/07/10 08:00:08;;;;;;;6.43;2.17;;;21.80;99.90;;;;;;4867913;29;20047;-86
2023/07/10 08:02:34;;;;;;;5.25;2.50;;;22.00;99.90;;;;;;4880389;29;20048;-87
2023/07/10 08:05:00;;;;;;;6.93;2.60;;;22.10;99.90;;;;;;4860858;29;20096;-86
2023/07/10 08:07:26;;;;;;;4.97;2.65;;;22.30;99.90;;;;;;4864346;29;20048;-87
2023/07/10 08:09:52;;;;;;;5.25;2.10;;;22.50;99.90;;;;;;4878855;29;20067;-87
2023/07/10 08:12:17;;;;;;;3.90;2.00;;;22.60;99.90;;;;;;4878483;29;20435;-85
2023/07/10 08:14:43;;;;;;;4.97;2.30;;;22.80;99.90;;;;;;4868156;29;20502;-86
2023/07/10 08:17:09;;;;;;;5.07;2.45;;;22.90;99.90;;;;;;4879057;29;20044;-88
2023/07/10 08:19:34;;;;;;;4.78;2.70;;;23.10;99.90;;;;;;4884337;29;20040;-86
2023/07/10 08:22:00;;;;;;;5.72;3.20;;;23.30;99.90;;;;;;4882482;29;20037;-88
2023/07/10 08:24:26;;;;;;;9.52;3.00;;;23.30;99.90;;;;;;4885874;29;20044;-86
2023/07/10 08:26:51;;;;;;;6.38;3.60;;;23.50;99.90;;;;;;4882600;29;20036;-86
2023/07/10 08:29:23;;;;;;;5.80;2.63;;;23.50;99.90;;;;;;4872433;29;20100;-87
2023/07/10 08:31:48;;;;;;;5.32;2.83;;;23.60;99.90;;;;;;4891114;29;20063;-87
2023/07/10 08:34:14;;;;;;;5.82;2.97;;;23.50;99.90;;;;;;4887337;29;20108;-87
2023/07/10 08:36:40;;;;;;;6.22;3.00;;;23.60;99.90;;;;;;4876240;29;20040;-87
2023/07/10 08:39:05;;;;;;;6.57;3.33;;;23.90;99.90;;;;;;4885414;29;20060;-87
2023/07/10 08:41:31;;;;;;;7.95;3.17;;;23.70;99.90;;;;;;4866239;29;20041;-87
2023/07/10 08:43:57;;;;;;;9.25;3.35;;;23.60;99.90;;;;;;4876352;29;20037;-86
2023/07/10 08:46:25;;;;;;;9.73;3.50;;;23.60;99.90;;;;;;4858101;29;20055;-87
2023/07/10 08:48:58;;;;;;;5.90;2.58;;;23.70;99.90;;;;;;4871849;29;20036;-86
2023/07/10 08:51:41;;;;;;;4.65;2.40;;;23.80;99.90;;;;;;4872042;29;20411;-87
2023/07/10 08:54:16;;;;;;;10.95;2.92;;;23.80;99.90;;;;;;4864672;29;20051;-86
2023/07/10 08:56:47;;;;;;;9.05;2.85;;;23.90;99.90;;;;;;4866545;29;20041;-87
2023/07/10 08:59:29;;;;;;;7.63;2.70;;;24.10;99.90;;;;;;4883372;29;20072;-87
2023/07/10 09:01:56;;;;;;;6.97;2.60;;;24.30;99.90;;;;;;4882352;29;20062;-87
2023/07/10 09:04:22;;;;;;;6.93;2.95;;;24.40;99.90;;;;;;4882849;29;20516;-88
2023/07/10 09:06:56;;;;;;;4.22;2.55;;;24.50;99.90;;;;;;4884659;29;20696;-89
2023/07/10 09:09:37;;;;;;;7.35;2.65;;;24.70;99.90;;;;;;4881650;29;20047;-89
2023/07/10 09:12:10;;;;;;;5.82;2.70;;;24.80;99.90;;;;;;4884437;29;20044;-89
2023/07/10 09:14:41;;;;;;;7.13;2.73;;;24.80;99.90;;;;;;4882134;29;20127;-88
2023/07/10 09:17:33;;;;;;;8.00;2.58;;;24.90;99.90;;;;;;4883996;29;20064;-88
2023/07/10 09:20:01;;;;;;;5.70;2.55;;;25.00;99.90;;;;;;4880075;29;20115;-87
2023/07/10 09:22:27;;;;;;;4.78;2.40;;;25.20;99.90;;;;;;4865442;29;20033;-87
2023/07/10 09:24:54;;;;;;;4.32;2.45;;;25.20;99.90;;;;;;4903296;29;20167;-86
2023/07/10 09:27:20;;;;;;;6.68;2.70;;;24.90;99.90;;;;;;4870585;29;20036;-88
2023/07/10 09:29:51;;;;;;;5.75;2.53;;;25.00;99.90;;;;;;4869315;29;20050;-85
2023/07/10 09:32:19;;;;;;;5.40;2.85;;;24.90;99.90;;;;;;4882931;29;20052;-86
2023/07/10 09:34:53;;;;;;;5.97;2.70;;;24.90;99.90;;;;;;4877295;29;20065;-86
2023/07/10 09:37:29;;;;;;;5.40;2.97;;;24.70;99.90;;;;;;4877276;29;20093;-87
2023/07/10 09:39:55;;;;;;;6.18;2.72;;;24.90;99.90;;;;;;4890354;29;20032;-87
2023/07/10 09:42:31;;;;;;;6.40;2.75;;;25.00;99.90;;;;;;4881926;29;20047;-87
2023/07/10 09:44:58;;;;;;;4.78;2.75;;;25.30;99.90;;;;;;4870103;29;20043;-89
2023/07/10 09:47:39;;;;;;;9.30;3.33;;;25.60;99.90;;;;;;4889042;29;20059;-88
2023/07/10 09:50:13;;;;;;;5.90;2.50;;;25.90;99.90;;;;;;4868497;29;20040;-87
2023/07/10 09:52:41;;;;;;;7.57;2.95;;;26.10;99.90;;;;;;4885733;29;20049;-86
2023/07/10 09:55:15;;;;;;;8.40;2.97;;;26.10;99.90;;;;;;4866981;29;20257;-86
2023/07/10 09:58:00;;;;;;;7.47;3.08;;;25.70;99.90;;;;;;4865918;29;20040;-86
2023/07/10 10:00:27;;;;;;;7.47;2.92;;;25.60;99.90;;;;;;4869004;29;20041;-86
2023/07/10 10:03:01;;;;;;;7.35;2.80;;;25.80;99.90;;;;;;4881007;29;20047;-85
2023/07/10 10:05:27;;;;;;;5.55;2.40;;;25.60;99.90;;;;;;4885533;29;20167;-86
2023/07/10 10:08:01;;;;;;;5.65;2.50;;;25.70;99.90;;;;;;4872095;29;20177;-87
2023/07/10 10:10:37;;;;;;;5.03;2.30;;;25.80;99.90;;;;;;4864612;29;20127;-87
2023/07/10 10:13:24;;;;;;;8.38;2.55;;;26.00;99.90;;;;;;4864954;29;20040;-87
2023/07/10 10:16:05;;;;;;;7.97;2.78;;;26.20;99.90;;;;;;4883681;29;20048;-86
2023/07/10 10:18:34;;;;;;;7.10;2.95;;;26.60;99.90;;;;;;4862495;29;20089;-88
2023/07/10 10:21:02;;;;;;;6.50;2.97;;;26.60;99.90;;;;;;4866852;29;20043;-87
2023/07/10 10:23:34;;;;;;;7.22;2.28;;;26.30;98.50;;;;;;4876120;29;20080;-88
2023/07/10 10:26:26;;;;;;;7.25;2.70;;;26.30;98.70;;;;;;4880331;29;20033;-87
2023/07/10 10:29:08;;;;;;;5.20;2.00;;;26.60;99.00;;;;;;4881675;29;20044;-87
2023/07/10 10:32:03;;;;;;;5.20;2.50;;;26.90;99.80;;;;;;4885612;29;20407;-88
2023/07/10 10:34:45;;;;;;;4.93;2.25;;;27.30;96.70;;;;;;4866041;29;20132;-87
2023/07/10 10:37:49;;;;;;;5.85;2.60;;;27.40;91.50;;;;;;4878350;29;20044;-87
2023/07/10 10:40:49;;;;;;;4.90;2.60;;;27.50;93.30;;;;;;4831391;29;20381;-88
2023/07/10 10:43:36;;;;;;;6.85;2.65;;;27.80;91.90;;;;;;4893826;29;20083;-88
2023/07/10 10:46:21;;;;;;;5.20;2.40;;;27.90;93.80;;;;;;4866410;29;20033;-88
2023/07/10 10:49:44;;;;;;;5.07;2.67;;;27.80;90.50;;;;;;4880511;29;20044;-89
2023/07/10 10:52:34;;;;;;;9.27;2.60;;;27.50;91.30;;;;;;4804195;29;20581;-91
2023/07/10 10:55:20;;;;;;;6.88;2.47;;;27.60;91.00;;;;;;4820491;29;20509;-89
2023/07/10 10:58:06;;;;;;;5.72;2.28;;;28.00;90.80;;;;;;4866357;29;20049;-89
2023/07/10 11:00:57;;;;;;;5.50;2.63;;;28.10;90.40;;;;;;4877878;29;20495;-89
2023/07/10 11:03:42;;;;;;;4.75;2.25;;;28.40;90.00;;;;;;4884584;29;20079;-88
2023/07/10 11:06:38;;;;;;;6.90;2.20;;;28.60;86.70;;;;;;4901958;29;20032;-91
2023/07/10 11:09:11;;;;;;;5.72;1.80;;;28.80;86.20;;;;;;4864331;29;20037;-88
2023/07/10 11:11:40;;;;;;;4.80;1.95;;;29.10;86.70;;;;;;4900122;29;20035;-89
2023/07/10 11:14:10;;;;;;;6.30;2.55;;;29.30;86.90;;;;;;4889127;29;20044;-87
2023/07/10 11:16:40;;;;;;;4.43;2.30;;;29.30;86.10;;;;;;4881912;29;20044;-89
2023/07/10 11:19:09;;;;;;;6.40;2.20;;;28.60;82.50;;;;;;4862123;29;20048;-89
2023/07/10 11:21:34;;;;;;;4.53;2.20;;;28.30;82.80;;;;;;4879849;29;20054;-89
2023/07/10 11:24:32;;;;;;;5.72;2.47;;;28.30;83.40;;;;;;4865577;29;20040;-88
2023/07/10 11:27:17;;;;;;;5.32;2.58;;;28.70;80.60;;;;;;4867286;29;20088;-89
2023/07/10 11:29:53;;;;;;;8.43;2.42;;;29.00;81.90;;;;;;4886216;29;20051;-88
2023/07/10 11:32:22;;;;;;;5.57;2.05;;;29.30;80.20;;;;;;4880136;29;20444;-88
2023/07/10 11:34:55;;;;;;;6.28;1.83;;;29.10;74.40;;;;;;4873827;29;20052;-89
2023/07/10 11:37:49;;;;;;;4.95;2.05;;;29.00;71.40;;;;;;4866254;29;20051;-88
2023/07/10 11:40:27;;;;;;;3.10;1.83;;;29.20;70.00;;;;;;4878049;29;20122;-87
2023/07/10 11:43:25;;;;;;;7.22;2.05;;;29.50;73.10;;;;;;4879530;29;20408;-88
2023/07/10 11:46:03;;;;;;;3.88;2.00;;;29.40;68.30;;;;;;4881805;29;20047;-84
2023/07/10 11:48:39;;;;;;;6.57;2.10;;;29.40;69.80;;;;;;4871698;29;20041;-88
2023/07/10 11:51:35;;;;;;;6.22;1.85;;;29.40;70.90;;;;;;4886338;29;20495;-89
2023/07/10 11:54:36;;;;;;;4.53;1.90;;;29.70;69.60;;;;;;4867704;29;20037;-86
2023/07/10 11:57:10;;;;;;;5.85;2.08;;;29.90;66.70;;;;;;4856824;29;20045;-85
2023/07/10 11:59:38;;;;;;;5.03;2.03;;;29.80;70.00;;;;;;4884712;29;20073;-86
2023/07/10 12:02:28;;;;;;;6.15;2.00;;;29.90;70.80;;;;;;4880785;29;20037;-88
2023/07/10 12:04:54;;;;;;;3.92;1.73;;;30.10;67.10;;;;;;4898216;29;20037;-87
2023/07/10 12:07:20;;;;;;;4.85;1.60;;;29.90;68.00;;;;;;4892026;29;20523;-86
2023/07/10 12:09:52;;;;;;;7.45;1.85;;;29.90;67.70;;;;;;4887046;29;20508;-86
2023/07/10 12:12:18;;;;;;;5.90;1.92;;;30.00;69.60;;;;;;4871001;29;20060;-87
2023/07/10 12:14:44;;;;;;;5.22;2.00;;;29.90;69.10;;;;;;4874896;29;20033;-87
2023/07/10 12:17:18;;;;;;;8.55;2.85;;;29.90;67.90;;;;;;4889713;29;20045;-87
2023/07/10 12:19:45;;;;;;;3.30;1.48;;;30.10;63.40;;;;;;4887112;29;20051;-87
2023/07/10 12:22:21;;;;;;;5.57;1.80;;;30.00;65.70;;;;;;4883234;29;20407;-87
2023/07/10 12:24:54;;;;;;;4.68;1.63;;;30.20;64.20;;;;;;4887705;29;20059;-83
2023/07/10 12:27:20;;;;;;;;;;;30.40;64.90;;;;;;4870222;29;20037;-87
2023/07/10 12:29:51;;;;;;;4.38;1.58;;;30.40;60.90;;;;;;4869778;29;19919;-87
2023/07/10 12:32:17;;;;;;;3.70;1.50;;;30.70;66.00;;;;;;4883048;29;20198;-83
2023/07/10 12:34:43;;;;;;;3.65;1.45;;;30.90;64.70;;;;;;4888105;29;20044;-89
2023/07/10 12:37:10;;;;;;;6.50;1.60;;;30.70;63.00;;;;;;4891286;29;20039;-87
2023/07/10 12:39:37;;;;;;;5.03;1.77;;;30.40;62.00;;;;;;4890465;29;20056;-88
2023/07/10 12:42:21;;;;;;;3.55;1.45;;;30.40;61.30;;;;;;4894073;29;20132;-84
2023/07/10 12:44:47;;;;;;;5.05;1.63;;;30.20;60.90;;;;;;4865279;29;20041;-88
2023/07/10 12:47:14;;;;;;;5.07;1.60;;;30.20;61.90;;;;;;4865729;29;20037;-87
2023/07/10 12:49:51;;;;;;;2.95;1.40;;;30.70;62.50;;;;;;4865658;29;20043;-88
2023/07/10 12:52:18;;;;;;;5.22;1.73;;;30.40;58.90;;;;;;4864441;29;20122;-87